Time;durP1;ratioP1;P1;durP2;ratioP2;P2;SDS_P1;SDS_P2;PMS_P1;PMS_P2;Temp;Humidity;BMP_temperature;BMP_pressure;BME280_temperature;BME280_humidity;BME280_pressure;Samples;Min_cycle;Max_cycle;Signal;HPM_P1;HPM_P2
2022/12/09 00:00:44;;;;;;;11.23;7.30;;;;;;;;;;8338827;28;20121;-62
2022/12/09 00:04:44;;;;;;;12.07;7.82;;;;;;;;;;8340141;28;20029;-63
2022/12/09 00:08:45;;;;;;;11.63;7.45;;;;;;;;;;8341714;28;20024;-62
2022/12/09 00:12:45;;;;;;;10.48;6.93;;;;;;;;;;8341414;28;20438;-64
2022/12/09 00:16:45;;;;;;;10.80;6.70;;;;;;;;;;8337823;28;20140;-63
2022/12/09 00:20:45;;;;;;;9.10;6.80;;;;;;;;;;8340596;28;20481;-62
2022/12/09 00:24:46;;;;;;;9.35;6.18;;;;;;;;;;8338723;28;20276;-62
2022/12/09 00:28:47;;;;;;;11.57;7.40;;;;;;;;;;8339677;28;20287;-63
2022/12/09 00:32:47;;;;;;;11.00;7.50;;;;;;;;;;8337825;28;20320;-63
2022/12/09 00:36:47;;;;;;;10.27;6.90;;;;;;;;;;8339372;28;20032;-63
2022/12/09 00:40:47;;;;;;;10.05;7.00;;;;;;;;;;8337710;28;20035;-63
2022/12/09 00:44:48;;;;;;;11.47;7.53;;;;;;;;;;8338100;28;20040;-62
2022/12/09 00:48:48;;;;;;;11.00;7.13;;;;;;;;;;8339792;28;20284;-62
2022/12/09 00:52:48;;;;;;;13.75;7.80;;;;;;;;;;8339848;28;20279;-63
2022/12/09 00:56:48;;;;;;;11.90;7.47;;;;;;;;;;8334985;28;20159;-63
2022/12/09 01:00:49;;;;;;;11.32;7.55;;;;;;;;;;8338354;28;20041;-63
2022/12/09 01:04:51;;;;;;;11.05;6.85;;;;;;;;;;8336920;28;20021;-62
2022/12/09 01:08:51;;;;;;;11.73;7.70;;;;;;;;;;8336754;28;20024;-63
2022/12/09 01:12:51;;;;;;;9.18;6.78;;;;;;;;;;8336971;28;20041;-62
2022/12/09 01:16:51;;;;;;;8.95;6.05;;;;;;;;;;8336835;28;20033;-63
2022/12/09 01:20:56;;;;;;;12.35;7.10;;;;;;;;;;8334740;28;20025;-63
2022/12/09 01:24:56;;;;;;;11.68;7.30;;;;;;;;;;8336569;28;20086;-63
2022/12/09 01:28:56;;;;;;;8.77;6.43;;;;;;;;;;8336811;28;20680;-62
2022/12/09 01:32:56;;;;;;;9.05;6.53;;;;;;;;;;8334734;28;20158;-62
2022/12/09 01:36:57;;;;;;;12.50;6.95;;;;;;;;;;8336461;28;20025;-62
2022/12/09 01:40:57;;;;;;;12.07;7.13;;;;;;;;;;8336758;28;20047;-62
2022/12/09 01:45:16;;;;;;;10.47;6.80;;;;;;;;;;8337797;28;20150;-63
2022/12/09 01:49:19;;;;;;;10.93;6.45;;;;;;;;;;8335563;28;20283;-62
2022/12/09 01:53:22;;;;;;;10.38;6.65;;;;;;;;;;8334814;28;20024;-63
2022/12/09 01:57:22;;;;;;;10.75;7.05;;;;;;;;;;8335350;28;20048;-62
2022/12/09 02:01:22;;;;;;;7.90;5.93;;;;;;;;;;8337796;28;20078;-63
2022/12/09 02:05:23;;;;;;;11.75;6.97;;;;;;;;;;8336786;28;20395;-63
2022/12/09 02:09:23;;;;;;;10.23;6.00;;;;;;;;;;8335766;28;20989;-62
2022/12/09 02:13:31;;;;;;;14.70;6.43;;;;;;;;;;8338661;28;20115;-62
2022/12/09 02:17:45;;;;;;;12.68;7.60;;;;;;;;;;8333877;28;20066;-63
2022/12/09 02:21:50;;;;;;;15.07;7.93;;;;;;;;;;8338119;28;20040;-63
2022/12/09 02:25:54;;;;;;;15.80;6.72;;;;;;;;;;8336603;28;20012;-62
2022/12/09 02:30:00;;;;;;;11.85;6.70;;;;;;;;;;8336588;28;20560;-62
2022/12/09 02:34:11;;;;;;;9.60;6.63;;;;;;;;;;8336444;28;20068;-63
2022/12/09 02:38:11;;;;;;;17.40;9.85;;;;;;;;;;8334472;28;20033;-62
2022/12/09 02:42:14;;;;;;;12.95;7.85;;;;;;;;;;8335733;28;20482;-62
2022/12/09 02:46:15;;;;;;;12.73;7.60;;;;;;;;;;8336156;28;20037;-62
2022/12/09 02:50:18;;;;;;;12.88;7.70;;;;;;;;;;8335491;28;20111;-62
2022/12/09 02:54:19;;;;;;;17.38;10.27;;;;;;;;;;8333767;28;20094;-63
2022/12/09 02:58:19;;;;;;;18.42;10.30;;;;;;;;;;8337228;28;20032;-63
2022/12/09 03:02:25;;;;;;;16.90;9.00;;;;;;;;;;8333424;28;20037;-62
2022/12/09 03:06:34;;;;;;;20.25;10.70;;;;;;;;;;8337574;28;20150;-63
2022/12/09 03:10:34;;;;;;;29.08;13.38;;;;;;;;;;8336183;28;20012;-62
2022/12/09 03:14:40;;;;;;;23.43;11.80;;;;;;;;;;8335587;28;20025;-63
2022/12/09 03:18:41;;;;;;;20.40;10.48;;;;;;;;;;8333745;28;20644;-62
2022/12/09 03:22:42;;;;;;;16.90;9.88;;;;;;;;;;8334384;28;20324;-63
2022/12/09 03:26:42;;;;;;;13.68;8.55;;;;;;;;;;8335795;28;20029;-62
2022/12/09 03:30:44;;;;;;;17.10;8.90;;;;;;;;;;8337704;28;20155;-62
2022/12/09 03:34:45;;;;;;;16.42;8.73;;;;;;;;;;8340393;28;20271;-63
2022/12/09 03:38:46;;;;;;;12.55;9.35;;;;;;;;;;8340569;28;20039;-63
2022/12/09 03:42:51;;;;;;;13.63;9.38;;;;;;;;;;8340881;28;20035;-63
2022/12/09 03:46:51;;;;;;;16.60;9.43;;;;;;;;;;8340651;28;20160;-62
2022/12/09 03:50:51;;;;;;;13.45;8.70;;;;;;;;;;8341046;28;20029;-63
2022/12/09 03:55:00;;;;;;;12.68;8.63;;;;;;;;;;8340787;28;20029;-63
2022/12/09 03:59:02;;;;;;;15.52;8.52;;;;;;;;;;8340390;28;20641;-62
2022/12/09 04:03:03;;;;;;;14.60;8.55;;;;;;;;;;8339643;28;20058;-63
2022/12/09 04:07:03;;;;;;;12.40;8.00;;;;;;;;;;8341019;28;20070;-63
2022/12/09 04:11:04;;;;;;;13.32;8.63;;;;;;;;;;8339425;28;20039;-63
2022/12/09 04:15:05;;;;;;;13.63;8.32;;;;;;;;;;8339706;28;20013;-63
2022/12/09 04:19:05;;;;;;;14.02;9.05;;;;;;;;;;8337830;28;20024;-63
2022/12/09 04:23:05;;;;;;;12.60;8.40;;;;;;;;;;8339371;28;20032;-63
2022/12/09 04:27:05;;;;;;;10.63;7.60;;;;;;;;;;8340119;28;20027;-62
2022/12/09 04:31:09;;;;;;;10.77;7.38;;;;;;;;;;8339359;28;20283;-62
2022/12/09 04:35:09;;;;;;;12.43;7.60;;;;;;;;;;8340805;28;20111;-63
2022/12/09 04:39:09;;;;;;;10.63;7.30;;;;;;;;;;8339120;28;20529;-62
2022/12/09 04:43:09;;;;;;;11.80;7.57;;;;;;;;;;8338554;28;20426;-64
2022/12/09 04:47:09;;;;;;;11.40;7.47;;;;;;;;;;8339758;28;20303;-63
2022/12/09 04:51:11;;;;;;;12.20;7.63;;;;;;;;;;8338870;28;20530;-63
2022/12/09 04:55:13;;;;;;;12.85;8.00;;;;;;;;;;8337133;28;20278;-63
2022/12/09 04:59:13;;;;;;;13.93;8.30;;;;;;;;;;8338229;28;20577;-63
2022/12/09 05:03:13;;;;;;;10.90;7.72;;;;;;;;;;8334466;28;20674;-63
2022/12/09 05:07:13;;;;;;;12.18;7.63;;;;;;;;;;8339319;28;20025;-63
2022/12/09 05:11:14;;;;;;;13.10;6.63;;;;;;;;;;8337919;28;20607;-63
2022/12/09 05:15:14;;;;;;;11.88;7.72;;;;;;;;;;8337171;28;20768;-62
2022/12/09 05:19:15;;;;;;;11.70;8.07;;;;;;;;;;8336625;28;20119;-63
2022/12/09 05:23:15;;;;;;;13.23;7.90;;;;;;;;;;8335832;28;20071;-62
2022/12/09 05:27:15;;;;;;;13.38;8.60;;;;;;;;;;8335841;28;20025;-63
2022/12/09 05:31:16;;;;;;;12.55;8.55;;;;;;;;;;8334278;28;20037;-65
2022/12/09 05:35:16;;;;;;;13.88;8.10;;;;;;;;;;8337863;28;20021;-62
2022/12/09 05:39:16;;;;;;;11.75;8.05;;;;;;;;;;8336701;28;20723;-63
2022/12/09 05:43:17;;;;;;;13.85;8.50;;;;;;;;;;8335251;28;20841;-63
2022/12/09 05:47:17;;;;;;;13.70;8.43;;;;;;;;;;8332844;28;20052;-62
2022/12/09 05:51:17;;;;;;;13.25;8.68;;;;;;;;;;8332098;28;20017;-63
2022/12/09 05:55:18;;;;;;;16.13;9.63;;;;;;;;;;8334859;28;20827;-63
2022/12/09 05:59:18;;;;;;;16.85;9.35;;;;;;;;;;8332161;28;20277;-62
2022/12/09 06:03:18;;;;;;;14.98;8.82;;;;;;;;;;8335094;28;20085;-63
2022/12/09 06:07:18;;;;;;;11.90;8.20;;;;;;;;;;8334149;28;20021;-64
2022/12/09 06:11:19;;;;;;;22.05;8.57;;;;;;;;;;8335431;28;20279;-62
2022/12/09 06:15:20;;;;;;;28.63;14.60;;;;;;;;;;8333455;28;20025;-63
2022/12/09 06:19:20;;;;;;;15.35;8.38;;;;;;;;;;8333280;28;20531;-63
2022/12/09 06:23:20;;;;;;;13.30;7.90;;;;;;;;;;8333227;28;20060;-63
2022/12/09 06:27:21;;;;;;;15.07;8.38;;;;;;;;;;8336715;28;20028;-63
2022/12/09 06:31:21;;;;;;;28.10;16.15;;;;;;;;;;8333026;28;20047;-63
2022/12/09 06:35:21;;;;;;;21.65;12.88;;;;;;;;;;8335297;28;20103;-63
2022/12/09 06:39:21;;;;;;;30.27;13.60;;;;;;;;;;8334108;28;20021;-62
2022/12/09 06:43:22;;;;;;;17.65;10.32;;;;;;;;;;8335680;28;20925;-63
2022/12/09 06:47:22;;;;;;;16.70;9.30;;;;;;;;;;8333933;28;20028;-64
2022/12/09 06:51:22;;;;;;;14.27;8.13;;;;;;;;;;8326587;28;20548;-63
2022/12/09 06:55:23;;;;;;;13.52;8.63;;;;;;;;;;8325707;28;20277;-63
2022/12/09 06:59:23;;;;;;;12.73;8.10;;;;;;;;;;8328868;28;20090;-63
2022/12/09 07:03:24;;;;;;;12.88;8.32;;;;;;;;;;8330378;28;20071;-63
2022/12/09 07:07:24;;;;;;;12.85;8.15;;;;;;;;;;8333600;28;20543;-62
2022/12/09 07:11:24;;;;;;;15.95;8.23;;;;;;;;;;8332650;28;20486;-63
2022/12/09 07:15:24;;;;;;;10.77;7.20;;;;;;;;;;8333341;28;20491;-63
2022/12/09 07:19:24;;;;;;;12.10;7.90;;;;;;;;;;8333831;28;20517;-63
2022/12/09 07:23:25;;;;;;;13.52;7.53;;;;;;;;;;8333330;28;20119;-62
2022/12/09 07:27:25;;;;;;;13.80;8.13;;;;;;;;;;8332618;28;20703;-62
2022/12/09 07:31:26;;;;;;;12.02;7.82;;;;;;;;;;8337021;28;20044;-63
2022/12/09 07:35:26;;;;;;;14.35;8.52;;;;;;;;;;8331986;28;20028;-63
2022/12/09 07:39:26;;;;;;;14.05;8.57;;;;;;;;;;8334888;28;20499;-63
2022/12/09 07:43:27;;;;;;;13.88;7.53;;;;;;;;;;8333954;28;20035;-63
2022/12/09 07:47:27;;;;;;;15.05;8.20;;;;;;;;;;8331648;28;20420;-62
2022/12/09 07:51:28;;;;;;;15.45;8.68;;;;;;;;;;8333830;28;20383;-62
2022/12/09 07:55:28;;;;;;;14.70;9.05;;;;;;;;;;8333500;28;20357;-63
2022/12/09 07:59:28;;;;;;;15.27;9.00;;;;;;;;;;8335001;28;20031;-63
2022/12/09 08:03:29;;;;;;;15.38;9.43;;;;;;;;;;8332452;28;20037;-63
2022/12/09 08:07:29;;;;;;;138.55;12.65;;;;;;;;;;8333559;28;20552;-63
2022/12/09 08:11:29;;;;;;;111.13;12.90;;;;;;;;;;8334396;28;20025;-62
2022/12/09 08:15:30;;;;;;;182.38;14.57;;;;;;;;;;8330819;28;20297;-63
2022/12/09 08:19:30;;;;;;;133.65;12.80;;;;;;;;;;8333088;28;20090;-63
2022/12/09 08:23:31;;;;;;;60.53;13.32;;;;;;;;;;8331260;28;20040;-62
2022/12/09 08:27:31;;;;;;;70.00;10.88;;;;;;;;;;8332472;28;20603;-63
2022/12/09 08:31:31;;;;;;;55.70;11.57;;;;;;;;;;8330099;28;20118;-63
2022/12/09 08:35:31;;;;;;;131.52;14.30;;;;;;;;;;8333947;28;20361;-63
2022/12/09 08:39:32;;;;;;;110.35;12.43;;;;;;;;;;8330581;28;20021;-64
2022/12/09 08:43:32;;;;;;;102.80;13.95;;;;;;;;;;8328239;28;20056;-63
2022/12/09 08:47:33;;;;;;;33.88;11.95;;;;;;;;;;8332364;28;20417;-64
2022/12/09 08:51:33;;;;;;;86.65;13.93;;;;;;;;;;8329394;28;20075;-63
2022/12/09 08:55:37;;;;;;;89.13;14.02;;;;;;;;;;8330959;28;20021;-63
2022/12/09 08:59:38;;;;;;;85.88;14.85;;;;;;;;;;8332618;28;20656;-65
2022/12/09 09:03:38;;;;;;;145.10;14.20;;;;;;;;;;8328586;28;20076;-63
2022/12/09 09:07:38;;;;;;;91.07;13.77;;;;;;;;;;8331477;28;20017;-63
2022/12/09 09:11:39;;;;;;;68.72;14.32;;;;;;;;;;8331683;28;20032;-63
2022/12/09 09:15:39;;;;;;;221.60;16.65;;;;;;;;;;8332106;28;20101;-62
2022/12/09 09:19:39;;;;;;;129.82;14.48;;;;;;;;;;8333470;28;20631;-63
2022/12/09 09:23:40;;;;;;;24.55;13.48;;;;;;;;;;8329104;28;20343;-63
2022/12/09 09:27:40;;;;;;;22.83;14.02;;;;;;;;;;8329987;28;20012;-63
2022/12/09 09:31:40;;;;;;;29.58;13.60;;;;;;;;;;8328193;28;20145;-63
2022/12/09 09:35:40;;;;;;;122.57;15.52;;;;;;;;;;8329215;28;20033;-63
2022/12/09 09:39:41;;;;;;;52.80;13.95;;;;;;;;;;8329295;28;20051;-63
2022/12/09 09:43:41;;;;;;;36.58;13.65;;;;;;;;;;8329565;28;20576;-63
2022/12/09 09:47:46;;;;;;;140.30;16.02;;;;;;;;;;8328973;28;20488;-64
2022/12/09 09:51:47;;;;;;;74.32;14.48;;;;;;;;;;8329893;28;20795;-63
2022/12/09 09:55:49;;;;;;;26.58;12.93;;;;;;;;;;8333753;28;20025;-64
2022/12/09 10:00:01;;;;;;;20.13;13.02;;;;;;;;;;8335623;28;20562;-64
2022/12/09 10:04:11;;;;;;;22.42;13.73;;;;;;;;;;8339454;28;20407;-63
2022/12/09 10:08:25;;;;;;;19.33;11.98;;;;;;;;;;8333993;28;20127;-63
2022/12/09 10:12:36;;;;;;;19.92;11.90;;;;;;;;;;8333834;28;20083;-63
2022/12/09 10:16:41;;;;;;;19.75;11.82;;;;;;;;;;8335426;28;20172;-63
2022/12/09 10:20:42;;;;;;;17.02;11.95;;;;;;;;;;8335124;28;20040;-64
2022/12/09 10:24:47;;;;;;;20.35;12.52;;;;;;;;;;8337345;28;20513;-64
2022/12/09 10:28:48;;;;;;;21.88;13.10;;;;;;;;;;8335460;28;20056;-64
2022/12/09 10:32:49;;;;;;;18.70;12.02;;;;;;;;;;8332411;28;20041;-64
2022/12/09 10:36:49;;;;;;;18.50;12.37;;;;;;;;;;8334721;28;20598;-63
2022/12/09 10:40:58;;;;;;;24.93;13.40;;;;;;;;;;8341158;28;21359;-63
2022/12/09 10:45:06;;;;;;;19.05;12.45;;;;;;;;;;8343104;28;20301;-63
2022/12/09 10:49:14;;;;;;;19.20;11.80;;;;;;;;;;8344611;28;20053;-64
2022/12/09 10:53:15;;;;;;;19.25;12.48;;;;;;;;;;8341514;28;20508;-63
2022/12/09 10:57:15;;;;;;;19.38;11.95;;;;;;;;;;8343196;28;20047;-64
2022/12/09 11:01:16;;;;;;;18.02;11.55;;;;;;;;;;8342964;28;20033;-63
2022/12/09 11:05:21;;;;;;;18.33;11.38;;;;;;;;;;8340041;28;20480;-63
2022/12/09 11:09:31;;;;;;;18.65;10.75;;;;;;;;;;8345855;28;21064;-64
2022/12/09 11:13:37;;;;;;;15.35;10.15;;;;;;;;;;8342548;28;20024;-64
2022/12/09 11:17:39;;;;;;;14.77;10.18;;;;;;;;;;8339603;28;20033;-64
2022/12/09 11:21:39;;;;;;;15.10;9.98;;;;;;;;;;8339445;28;20449;-64
2022/12/09 11:25:50;;;;;;;15.52;10.13;;;;;;;;;;8337789;28;20035;-64
2022/12/09 11:30:04;;;;;;;15.27;9.98;;;;;;;;;;8344036;28;20386;-64
2022/12/09 11:34:12;;;;;;;17.40;11.80;;;;;;;;;;8337992;28;20114;-63
2022/12/09 11:38:15;;;;;;;16.70;10.88;;;;;;;;;;8335370;28;20322;-63
2022/12/09 11:42:17;;;;;;;17.05;10.73;;;;;;;;;;8334807;28;20033;-64
2022/12/09 11:46:17;;;;;;;14.70;10.43;;;;;;;;;;8335640;28;20041;-63
2022/12/09 11:50:22;;;;;;;14.88;10.05;;;;;;;;;;8334982;28;20120;-64
2022/12/09 11:54:33;;;;;;;14.25;9.88;;;;;;;;;;8336984;28;20035;-64
2022/12/09 11:58:37;;;;;;;14.85;9.65;;;;;;;;;;8336519;28;20140;-64
2022/12/09 12:03:01;;;;;;;14.32;10.57;;;;;;;;;;8337149;28;20143;-64
2022/12/09 12:07:04;;;;;;;13.95;9.15;;;;;;;;;;8311110;28;20029;-63
2022/12/09 12:11:06;;;;;;;15.77;9.15;;;;;;;;;;8335866;28;20024;-63
2022/12/09 12:15:16;;;;;;;13.43;9.35;;;;;;;;;;8335057;28;20933;-63
2022/12/09 12:19:20;;;;;;;15.52;9.73;;;;;;;;;;8333144;28;20668;-64
2022/12/09 12:23:20;;;;;;;13.13;9.27;;;;;;;;;;8335539;28;20021;-63
2022/12/09 12:27:20;;;;;;;15.30;9.63;;;;;;;;;;8331486;28;20063;-63
2022/12/09 12:31:27;;;;;;;14.40;10.07;;;;;;;;;;8294077;28;1125243;-63
2022/12/09 12:35:30;;;;;;;12.23;9.15;;;;;;;;;;8332828;28;20044;-64
2022/12/09 12:39:46;;;;;;;12.65;9.00;;;;;;;;;;8332545;28;20074;-63
2022/12/09 12:48:08;;;;;;;12.85;8.05;;;;;;;;;;8333410;28;20043;-63
2022/12/09 12:52:31;;;;;;;17.13;8.87;;;;;;;;;;8333692;28;20062;-64
2022/12/09 12:56:39;;;;;;;12.25;8.35;;;;;;;;;;8304130;28;20048;-63
2022/12/09 13:00:51;;;;;;;13.23;8.82;;;;;;;;;;8332638;28;20464;-63
2022/12/09 13:04:56;;;;;;;13.93;8.88;;;;;;;;;;8333591;28;20040;-68
2022/12/09 13:09:00;;;;;;;13.02;8.90;;;;;;;;;;8335977;28;20025;-63
2022/12/09 13:13:01;;;;;;;12.25;8.40;;;;;;;;;;8335452;28;20159;-63
2022/12/09 13:17:04;;;;;;;12.65;8.55;;;;;;;;;;8330897;28;20047;-63
2022/12/09 13:21:05;;;;;;;12.45;8.73;;;;;;;;;;8331141;28;20029;-64
2022/12/09 13:25:05;;;;;;;11.93;8.35;;;;;;;;;;8333637;28;20028;-64
2022/12/09 13:29:27;;;;;;;11.18;8.27;;;;;;;;;;8332828;28;20036;-63
2022/12/09 13:33:27;;;;;;;13.13;8.45;;;;;;;;;;8326896;28;20041;-63
2022/12/09 13:37:30;;;;;;;13.38;8.77;;;;;;;;;;8323649;28;20063;-61
2022/12/09 13:42:51;;;;;;;13.88;9.10;;;;;;;;;;8325613;28;20059;-61
2022/12/09 13:45:52;;;;;;;12.55;8.65;;;;;;;;;;8325360;28;20036;-61
2022/12/09 13:50:00;;;;;;;12.73;9.05;;;;;;;;;;8326248;28;20044;-61
2022/12/09 13:54:02;;;;;;;10.35;7.15;;;;;;;;;;8326617;28;20020;-61
2022/12/09 13:58:15;;;;;;;11.77;8.40;;;;;;;;;;8327383;28;20028;-63
2022/12/09 14:02:18;;;;;;;11.45;7.97;;;;;;;;;;8334352;28;20488;-63
2022/12/09 14:06:21;;;;;;;13.98;8.68;;;;;;;;;;8327780;28;20020;-63
2022/12/09 14:10:37;;;;;;;13.02;8.02;;;;;;;;;;8325060;28;20035;-63
2022/12/09 14:14:48;;;;;;;11.25;7.95;;;;;;;;;;8325815;28;20106;-62
2022/12/09 14:18:48;;;;;;;13.27;8.57;;;;;;;;;;8325045;28;20609;-63
2022/12/09 14:23:07;;;;;;;12.52;8.40;;;;;;;;;;8327338;28;20027;-62
2022/12/09 14:27:08;;;;;;;14.35;8.55;;;;;;;;;;8326926;28;20435;-62
2022/12/09 14:31:09;;;;;;;13.93;9.13;;;;;;;;;;8325992;28;20067;-62
2022/12/09 14:35:09;;;;;;;14.57;9.10;;;;;;;;;;8326189;28;20039;-64
2022/12/09 14:39:15;;;;;;;11.70;8.23;;;;;;;;;;8330153;28;20278;-62
2022/12/09 14:43:24;;;;;;;17.17;9.50;;;;;;;;;;8325394;28;20036;-62
2022/12/09 14:47:26;;;;;;;11.50;7.85;;;;;;;;;;8325826;28;20107;-62
2022/12/09 14:51:32;;;;;;;11.85;7.90;;;;;;;;;;8326488;28;20016;-62
2022/12/09 14:55:35;;;;;;;11.43;7.68;;;;;;;;;;8326013;28;20112;-62
2022/12/09 14:59:35;;;;;;;11.83;8.27;;;;;;;;;;8326348;28;20382;-62
2022/12/09 15:03:36;;;;;;;12.35;8.25;;;;;;;;;;8325447;28;20748;-63
2022/12/09 15:07:42;;;;;;;13.23;7.70;;;;;;;;;;8325019;28;20750;-62
2022/12/09 15:11:42;;;;;;;10.40;7.25;;;;;;;;;;8324483;28;20036;-63
2022/12/09 15:15:42;;;;;;;11.63;7.93;;;;;;;;;;8321829;28;21341;-63
2022/12/09 15:19:42;;;;;;;10.68;7.82;;;;;;;;;;8324373;28;20029;-63
2022/12/09 15:23:43;;;;;;;10.87;7.37;;;;;;;;;;8327882;28;20509;-63
2022/12/09 15:28:02;;;;;;;11.50;8.18;;;;;;;;;;8330800;28;20278;-63
2022/12/09 15:32:02;;;;;;;11.93;7.78;;;;;;;;;;8331506;28;20045;-62
2022/12/09 15:36:12;;;;;;;10.20;7.25;;;;;;;;;;8330130;28;20031;-62
2022/12/09 15:40:14;;;;;;;8.93;6.40;;;;;;;;;;8332081;28;20075;-63
2022/12/09 15:44:16;;;;;;;11.82;7.40;;;;;;;;;;8329401;28;20341;-63
2022/12/09 15:48:18;;;;;;;9.90;7.22;;;;;;;;;;8351617;28;20072;-62
2022/12/09 15:52:20;;;;;;;12.45;8.48;;;;;;;;;;8338066;28;20029;-63
2022/12/09 15:56:23;;;;;;;12.70;8.30;;;;;;;;;;8340188;28;20097;-63
2022/12/09 16:00:23;;;;;;;11.50;6.97;;;;;;;;;;8337260;28;20042;-63
2022/12/09 16:04:43;;;;;;;11.82;8.38;;;;;;;;;;8338634;28;20064;-63
2022/12/09 16:08:43;;;;;;;12.98;8.45;;;;;;;;;;8339424;28;20041;-62
2022/12/09 16:12:44;;;;;;;10.68;7.53;;;;;;;;;;8338180;28;20082;-63
2022/12/09 16:16:54;;;;;;;11.68;7.75;;;;;;;;;;8338854;28;20485;-63
2022/12/09 16:20:56;;;;;;;11.20;7.80;;;;;;;;;;8330543;28;20494;-63
2022/12/09 16:24:56;;;;;;;12.25;7.82;;;;;;;;;;8323210;28;20067;-63
2022/12/09 16:28:58;;;;;;;11.02;7.68;;;;;;;;;;8328375;28;20104;-63
2022/12/09 16:33:00;;;;;;;11.98;8.40;;;;;;;;;;8328851;28;20145;-63
2022/12/09 16:37:00;;;;;;;11.55;8.15;;;;;;;;;;8327336;28;20634;-63
2022/12/09 16:41:02;;;;;;;14.32;8.75;;;;;;;;;;8325289;28;20461;-62
2022/12/09 16:45:21;;;;;;;12.50;8.48;;;;;;;;;;8327594;28;20831;-63
2022/12/09 16:49:21;;;;;;;14.82;9.05;;;;;;;;;;8328658;28;20410;-63
2022/12/09 16:53:27;;;;;;;12.27;8.85;;;;;;;;;;8325431;28;20039;-63
2022/12/09 16:57:27;;;;;;;13.75;8.82;;;;;;;;;;8329012;28;20036;-63
2022/12/09 17:01:33;;;;;;;13.73;8.32;;;;;;;;;;8330852;28;20448;-63
2022/12/09 17:05:33;;;;;;;11.90;7.93;;;;;;;;;;8328408;28;20047;-63
2022/12/09 17:09:33;;;;;;;12.38;8.25;;;;;;;;;;8329322;28;20024;-63
2022/12/09 17:13:34;;;;;;;11.98;8.02;;;;;;;;;;8330410;28;20012;-63
2022/12/09 17:17:34;;;;;;;11.68;8.07;;;;;;;;;;8327305;28;20091;-63
2022/12/09 17:21:35;;;;;;;12.25;7.82;;;;;;;;;;8331740;28;20391;-63
2022/12/09 17:25:35;;;;;;;10.85;8.02;;;;;;;;;;8329287;28;20028;-63
2022/12/09 17:29:36;;;;;;;13.27;8.30;;;;;;;;;;8331083;28;20313;-63
2022/12/09 17:33:37;;;;;;;11.30;7.68;;;;;;;;;;8329604;28;20115;-63
2022/12/09 17:37:37;;;;;;;11.95;8.00;;;;;;;;;;8328409;28;20369;-63
2022/12/09 17:41:38;;;;;;;12.65;7.85;;;;;;;;;;8324587;28;20027;-63
2022/12/09 17:45:38;;;;;;;12.43;8.55;;;;;;;;;;8326434;28;20450;-63
2022/12/09 17:49:38;;;;;;;14.02;8.45;;;;;;;;;;8327923;28;20021;-63
2022/12/09 17:53:39;;;;;;;13.10;7.65;;;;;;;;;;8328855;28;20478;-63
2022/12/09 17:57:39;;;;;;;13.20;8.45;;;;;;;;;;8325838;28;20021;-63
2022/12/09 18:01:42;;;;;;;12.03;8.43;;;;;;;;;;8325390;28;20037;-63
2022/12/09 18:05:42;;;;;;;12.55;8.50;;;;;;;;;;8326362;28;20280;-63
2022/12/09 18:09:42;;;;;;;13.02;8.38;;;;;;;;;;8330159;28;20614;-63
2022/12/09 18:13:43;;;;;;;12.83;8.23;;;;;;;;;;8328371;28;20028;-63
2022/12/09 18:17:43;;;;;;;12.60;8.35;;;;;;;;;;8328159;28;20275;-63
2022/12/09 18:21:43;;;;;;;13.38;7.88;;;;;;;;;;8330225;28;20032;-63
2022/12/09 18:25:44;;;;;;;10.30;7.40;;;;;;;;;;8325660;28;20063;-63
2022/12/09 18:29:44;;;;;;;10.07;7.22;;;;;;;;;;8328744;28;20050;-63
2022/12/09 18:33:44;;;;;;;9.18;7.05;;;;;;;;;;8330276;28;20048;-63
2022/12/09 18:37:44;;;;;;;11.48;7.70;;;;;;;;;;8327308;28;20033;-63
2022/12/09 18:41:45;;;;;;;9.15;6.65;;;;;;;;;;8324114;28;20025;-63
2022/12/09 18:45:45;;;;;;;11.40;7.32;;;;;;;;;;8327109;28;20033;-63
2022/12/09 18:49:45;;;;;;;9.90;6.85;;;;;;;;;;8336625;28;20025;-63
2022/12/09 18:53:46;;;;;;;10.60;6.93;;;;;;;;;;8334174;28;20773;-63
2022/12/09 18:57:46;;;;;;;10.43;6.90;;;;;;;;;;8329085;28;20051;-63
2022/12/09 19:01:47;;;;;;;9.50;7.28;;;;;;;;;;8333175;28;20037;-63
2022/12/09 19:05:47;;;;;;;9.82;7.07;;;;;;;;;;8333402;28;20439;-63
2022/12/09 19:09:48;;;;;;;10.45;7.38;;;;;;;;;;8333823;28;21083;-62
2022/12/09 19:13:48;;;;;;;14.10;8.25;;;;;;;;;;8334647;28;20095;-62
2022/12/09 19:17:49;;;;;;;10.73;7.93;;;;;;;;;;8335096;28;20036;-62
2022/12/09 19:21:49;;;;;;;12.18;8.13;;;;;;;;;;8335114;28;20028;-63
2022/12/09 19:25:49;;;;;;;13.38;8.45;;;;;;;;;;8334065;28;20036;-62
2022/12/09 19:29:50;;;;;;;13.45;8.73;;;;;;;;;;8336414;28;20032;-63
2022/12/09 19:34:13;;;;;;;13.35;8.40;;;;;;;;;;8333980;28;20155;-63
2022/12/09 19:38:13;;;;;;;13.15;7.82;;;;;;;;;;8328324;28;20040;-64
2022/12/09 19:42:13;;;;;;;10.93;7.10;;;;;;;;;;8334395;28;20034;-63
2022/12/09 19:46:14;;;;;;;12.40;8.35;;;;;;;;;;8333294;28;20040;-63
2022/12/09 19:50:14;;;;;;;10.07;7.00;;;;;;;;;;8332754;28;20024;-63
2022/12/09 19:54:14;;;;;;;10.68;7.25;;;;;;;;;;8332311;28;20032;-63
2022/12/09 19:58:15;;;;;;;9.63;7.10;;;;;;;;;;8333560;28;20031;-63
2022/12/09 20:02:15;;;;;;;10.35;7.07;;;;;;;;;;8334209;28;20367;-63
2022/12/09 20:06:17;;;;;;;9.65;6.57;;;;;;;;;;8332872;28;20028;-63
2022/12/09 20:10:17;;;;;;;9.20;7.40;;;;;;;;;;8334441;28;20081;-62
2022/12/09 20:14:17;;;;;;;12.07;6.72;;;;;;;;;;8340546;28;20029;-63
2022/12/09 20:18:18;;;;;;;8.65;6.50;;;;;;;;;;8339909;28;20036;-63
2022/12/09 20:22:18;;;;;;;10.38;6.90;;;;;;;;;;8340939;28;20021;-63
2022/12/09 20:26:18;;;;;;;10.38;7.32;;;;;;;;;;8341544;28;20020;-63
2022/12/09 20:30:18;;;;;;;12.65;7.57;;;;;;;;;;8340719;28;20409;-63
2022/12/09 20:34:19;;;;;;;10.75;7.75;;;;;;;;;;8339247;28;20025;-63
2022/12/09 20:38:20;;;;;;;12.23;7.97;;;;;;;;;;8338113;28;20032;-63
2022/12/09 20:42:20;;;;;;;11.93;7.65;;;;;;;;;;8339551;28;20020;-63
2022/12/09 20:46:22;;;;;;;9.68;7.22;;;;;;;;;;8335942;28;20037;-63
2022/12/09 20:50:22;;;;;;;13.00;7.90;;;;;;;;;;8341863;28;20021;-64
2022/12/09 20:54:23;;;;;;;8.63;6.40;;;;;;;;;;8342448;28;20028;-63
2022/12/09 20:58:23;;;;;;;13.57;8.25;;;;;;;;;;8338875;28;20031;-63
2022/12/09 21:02:25;;;;;;;10.45;7.28;;;;;;;;;;8338139;28;20596;-63
2022/12/09 21:06:28;;;;;;;10.38;7.40;;;;;;;;;;8338725;28;20541;-63
2022/12/09 21:10:28;;;;;;;10.40;7.55;;;;;;;;;;8341084;28;20486;-63
2022/12/09 21:14:30;;;;;;;18.30;10.40;;;;;;;;;;8337249;28;20093;-64
2022/12/09 21:18:30;;;;;;;11.30;7.68;;;;;;;;;;8337649;28;20811;-63
2022/12/09 21:22:32;;;;;;;11.00;7.47;;;;;;;;;;8335536;28;20052;-63
2022/12/09 21:26:32;;;;;;;10.75;7.63;;;;;;;;;;8337039;28;20028;-64
2022/12/09 21:30:32;;;;;;;9.43;6.80;;;;;;;;;;8337826;28;20898;-63
2022/12/09 21:34:33;;;;;;;10.52;7.22;;;;;;;;;;8338311;28;20035;-63
2022/12/09 21:38:33;;;;;;;9.43;7.18;;;;;;;;;;8335564;28;20036;-63
2022/12/09 21:42:33;;;;;;;10.82;7.32;;;;;;;;;;8337992;28;20421;-63
2022/12/09 21:46:34;;;;;;;11.95;7.03;;;;;;;;;;8337931;28;20029;-63
2022/12/09 21:50:35;;;;;;;10.40;6.95;;;;;;;;;;8336900;28;20017;-64
2022/12/09 21:54:35;;;;;;;8.60;6.90;;;;;;;;;;8336542;28;20028;-63
2022/12/09 21:58:35;;;;;;;9.35;6.97;;;;;;;;;;8340185;28;20400;-64
2022/12/09 22:02:36;;;;;;;11.23;7.30;;;;;;;;;;8335695;28;20119;-63
2022/12/09 22:06:37;;;;;;;9.50;6.95;;;;;;;;;;8338019;28;20271;-62
2022/12/09 22:10:37;;;;;;;11.07;7.30;;;;;;;;;;8336826;28;20078;-64
2022/12/09 22:14:37;;;;;;;11.80;6.50;;;;;;;;;;8336717;28;20107;-62
2022/12/09 22:18:38;;;;;;;9.53;6.83;;;;;;;;;;8333654;28;20042;-63
2022/12/09 22:22:39;;;;;;;10.23;7.10;;;;;;;;;;8336858;28;20306;-63
2022/12/09 22:26:42;;;;;;;9.13;7.18;;;;;;;;;;8334550;28;20024;-63
2022/12/09 22:30:42;;;;;;;10.57;7.03;;;;;;;;;;8334334;28;20045;-63
2022/12/09 22:34:42;;;;;;;12.65;8.60;;;;;;;;;;8334832;28;20033;-64
2022/12/09 22:38:43;;;;;;;13.90;7.65;;;;;;;;;;8341114;28;20033;-63
2022/12/09 22:42:44;;;;;;;12.27;7.80;;;;;;;;;;8343394;28;20025;-64
2022/12/09 22:46:44;;;;;;;12.15;7.47;;;;;;;;;;8338178;28;20120;-63
2022/12/09 22:50:44;;;;;;;10.55;8.05;;;;;;;;;;8342050;28;20049;-63
2022/12/09 22:54:45;;;;;;;11.07;8.18;;;;;;;;;;8343567;28;20025;-63
2022/12/09 22:58:45;;;;;;;14.55;9.73;;;;;;;;;;8343764;28;20032;-63
2022/12/09 23:02:45;;;;;;;14.00;8.75;;;;;;;;;;8342625;28;20118;-63
2022/12/09 23:06:46;;;;;;;14.93;9.00;;;;;;;;;;8344454;28;20086;-63
2022/12/09 23:10:46;;;;;;;13.25;9.25;;;;;;;;;;8343047;28;20278;-63
2022/12/09 23:14:46;;;;;;;13.55;9.43;;;;;;;;;;8344161;28;20067;-63
2022/12/09 23:18:46;;;;;;;13.25;8.55;;;;;;;;;;8344534;28;20064;-63
2022/12/09 23:22:47;;;;;;;14.48;8.38;;;;;;;;;;8342247;28;20052;-63
2022/12/09 23:26:47;;;;;;;13.03;9.20;;;;;;;;;;8338085;28;20028;-63
2022/12/09 23:30:47;;;;;;;11.77;8.23;;;;;;;;;;8338379;28;21135;-62
2022/12/09 23:34:47;;;;;;;14.98;8.13;;;;;;;;;;8342243;28;20843;-63
2022/12/09 23:38:48;;;;;;;15.43;9.00;;;;;;;;;;8342101;28;20156;-63
2022/12/09 23:42:51;;;;;;;11.30;8.10;;;;;;;;;;8339832;28;20040;-64
2022/12/09 23:46:51;;;;;;;12.10;8.25;;;;;;;;;;8342466;28;20142;-63
2022/12/09 23:50:52;;;;;;;10.70;7.57;;;;;;;;;;8343518;28;20040;-63